Time;durP1;ratioP1;P1;durP2;ratioP2;P2;SDS_P1;SDS_P2;PMS_P1;PMS_P2;Temp;Humidity;BMP_temperature;BMP_pressure;BME280_temperature;BME280_humidity;BME280_pressure;Samples;Min_cycle;Max_cycle;Signal;HPM_P1;HPM_P2
2023/10/09 00:02:14;;;;;;;0.28;0.28;;;;;;;11.44;100.00;101315.56;4978263;28;20053;-77
2023/10/09 00:04:45;;;;;;;0.25;0.25;;;;;;;10.93;100.00;101271.19;4978361;28;20051;-78
2023/10/09 00:07:16;;;;;;;0.40;0.30;;;;;;;10.82;100.00;101277.19;4983973;28;20049;-76
2023/10/09 00:09:48;;;;;;;0.38;0.38;;;;;;;11.02;100.00;101265.16;4978677;28;20506;-76
2023/10/09 00:12:22;;;;;;;0.20;0.20;;;;;;;10.76;100.00;101207.97;4975328;28;20049;-76
2023/10/09 00:14:50;;;;;;;0.30;0.30;;;;;;;10.75;100.00;101195.72;4983776;28;20093;-77
2023/10/09 00:17:17;;;;;;;1.77;0.73;;;;;;;10.77;100.00;101203.63;4978012;28;20065;-76
2023/10/09 00:19:59;;;;;;;0.30;0.30;;;;;;;11.19;100.00;101310.00;4989862;28;20811;-76
2023/10/09 00:24:51;;;;;;;0.20;0.20;;;;;;;11.03;100.00;101319.47;4984350;28;20571;-75
2023/10/09 00:27:21;;;;;;;0.30;0.30;;;;;;;10.35;100.00;101237.19;4987587;28;20129;-75
2023/10/09 00:29:48;;;;;;;0.70;0.63;;;;;;;10.99;100.00;101321.16;4988247;28;20474;-76
2023/10/09 00:32:27;;;;;;;0.28;0.28;;;;;;;10.13;100.00;101219.31;4983393;28;20096;-78
2023/10/09 00:34:58;;;;;;;0.20;0.20;;;;;;;10.34;100.00;101238.03;4986454;28;20047;-78
2023/10/09 00:37:25;;;;;;;0.50;0.50;;;;;;;11.09;100.00;101329.16;4981222;28;20105;-78
2023/10/09 00:40:12;;;;;;;0.30;0.30;;;;;;;10.28;100.00;101200.31;4983809;28;20054;-76
2023/10/09 00:42:38;;;;;;;0.20;0.20;;;;;;;10.98;100.00;101343.03;4983543;28;20192;-77
2023/10/09 00:45:04;;;;;;;0.20;0.20;;;;;;;11.06;100.00;101337.00;4979987;28;20062;-78
2023/10/09 00:47:34;;;;;;;1.33;0.75;;;;;;;10.95;100.00;101342.97;4984103;28;20032;-78
2023/10/09 00:52:50;;;;;;;0.65;0.55;;;;;;;11.03;100.00;101366.75;4988059;28;20050;-77
2023/10/09 00:55:27;;;;;;;0.25;0.25;;;;;;;10.56;100.00;101369.56;4986466;28;20090;-78
2023/10/09 00:57:59;;;;;;;0.73;0.73;;;;;;;10.28;100.00;101255.41;4986293;28;20061;-77
2023/10/09 01:00:52;;;;;;;0.20;0.20;;;;;;;10.95;100.00;101381.50;4980745;28;20092;-76
2023/10/09 01:05:58;;;;;;;0.28;0.28;;;;;;;10.11;100.00;101263.00;4983847;28;20046;-77
2023/10/09 01:08:32;;;;;;;0.30;0.30;;;;;;;10.44;100.00;101362.38;4982734;28;20038;-76
2023/10/09 01:11:31;;;;;;;1.00;0.90;;;;;;;10.40;100.00;101396.41;4979919;28;20042;-77
2023/10/09 01:16:17;;;;;;;0.28;0.28;;;;;;;10.52;99.85;101401.84;4985348;28;20519;-77
2023/10/09 01:18:44;;;;;;;0.30;0.30;;;;;;;10.04;98.59;101292.59;4988313;28;20137;-77
2023/10/09 01:21:14;;;;;;;0.30;0.30;;;;;;;10.46;96.66;101394.75;4984732;28;20042;-77
2023/10/09 01:24:03;;;;;;;0.80;0.63;;;;;;;10.65;96.45;101390.69;4983349;28;20046;-77
2023/10/09 01:26:44;;;;;;;0.40;0.40;;;;;;;10.65;94.00;101422.19;4980316;28;20039;-78
2023/10/09 01:29:30;;;;;;;0.22;0.22;;;;;;;10.57;94.97;101422.06;4985918;28;20030;-77
2023/10/09 01:32:00;;;;;;;0.47;0.40;;;;;;;9.48;96.40;101306.47;4983161;28;20715;-78
2023/10/09 01:37:26;;;;;;;1.15;0.80;;;;;;;9.71;95.39;101314.75;4984653;28;20537;-77
2023/10/09 01:39:53;;;;;;;0.28;0.28;;;;;;;9.91;96.91;101415.63;4983890;28;20578;-78
2023/10/09 01:44:55;;;;;;;0.20;0.20;;;;;;;10.43;95.30;101444.56;4983021;28;20055;-78
2023/10/09 01:47:21;;;;;;;0.95;0.95;;;;;;;9.62;93.64;101317.22;4984018;28;20104;-78
2023/10/09 01:49:52;;;;;;;0.40;0.32;;;;;;;9.50;95.61;101331.88;4986869;28;20038;-77
2023/10/09 01:52:20;;;;;;;0.63;0.63;;;;;;;9.80;96.82;101464.34;4985937;28;20454;-77
2023/10/09 01:54:50;;;;;;;0.22;0.22;;;;;;;9.65;98.29;101360.09;4980643;28;20038;-77
2023/10/09 01:57:25;;;;;;;0.30;0.30;;;;;;;9.74;99.54;101453.75;4985837;28;21303;-78
2023/10/09 01:59:55;;;;;;;1.40;0.70;;;;;;;8.97;99.51;101262.72;4982683;28;20053;-77
2023/10/09 02:02:26;;;;;;;0.30;0.30;;;;;;;9.60;98.37;101373.94;4979783;28;20050;-78
2023/10/09 02:05:05;;;;;;;1.10;1.05;;;;;;;10.10;97.67;101457.94;4984608;28;20062;-76
2023/10/09 02:07:40;;;;;;;1.52;1.42;;;;;;;9.48;100.00;101437.47;4982565;28;20174;-77
2023/10/09 02:10:21;;;;;;;0.30;0.30;;;;;;;8.76;100.00;101334.69;4973346;28;20058;-78
2023/10/09 02:12:57;;;;;;;0.30;0.30;;;;;;;9.55;100.00;101454.19;4983300;28;20518;-79
2023/10/09 02:23:49;;;;;;;0.45;0.40;;;;;;;9.29;100.00;101444.03;4983405;28;20042;-80
2023/10/09 02:26:26;;;;;;;0.20;0.20;;;;;;;9.36;100.00;101437.22;4981714;28;20042;-76
2023/10/09 02:28:58;;;;;;;0.20;0.20;;;;;;;9.51;100.00;101459.38;4984092;28;20058;-78
2023/10/09 02:31:28;;;;;;;0.20;0.20;;;;;;;9.51;100.00;101485.59;4984844;28;20042;-78
2023/10/09 02:33:55;;;;;;;3.00;2.50;;;;;;;9.78;100.00;101483.50;4982913;28;20054;-77
2023/10/09 02:36:21;;;;;;;0.30;0.30;;;;;;;9.15;100.00;101374.78;4981038;28;20046;-77
2023/10/09 02:38:48;;;;;;;0.40;0.40;;;;;;;9.77;100.00;101463.41;4979182;28;20651;-77
2023/10/09 02:44:10;;;;;;;0.30;0.30;;;;;;;9.45;100.00;101480.19;4982966;28;20066;-77
2023/10/09 02:46:29;;;;;;;0.25;0.25;;;;;;;8.81;100.00;101325.19;4981580;28;20392;-77
2023/10/09 02:49:03;;;;;;;1.70;1.60;;;;;;;8.88;100.00;101376.84;4982792;28;20081;-77
2023/10/09 02:53:57;;;;;;;0.20;0.20;;;;;;;9.08;100.00;101496.81;4982492;28;20042;-79
2023/10/09 02:56:42;;;;;;;0.30;0.30;;;;;;;8.59;100.00;101363.09;4979567;28;20046;-78
2023/10/09 02:59:07;;;;;;;1.33;1.20;;;;;;;9.08;100.00;101479.41;4982755;28;20490;-77
2023/10/09 03:01:38;;;;;;;0.30;0.30;;;;;;;9.12;100.00;101417.50;4983597;28;20080;-77
2023/10/09 03:04:05;;;;;;;0.22;0.22;;;;;;;9.40;100.00;101487.06;4981373;28;20050;-77
2023/10/09 03:06:33;;;;;;;0.30;0.30;;;;;;;9.00;100.00;101378.84;5014637;28;20481;-77
2023/10/09 03:09:00;;;;;;;0.25;0.25;;;;;;;9.36;100.00;101495.72;4980384;28;20072;-79
2023/10/09 03:11:32;;;;;;;0.30;0.30;;;;;;;9.33;100.00;101487.78;4981626;28;20438;-77
2023/10/09 03:13:57;;;;;;;0.50;0.50;;;;;;;9.40;100.00;101446.91;4981236;28;20072;-79
2023/10/09 03:16:23;;;;;;;2.05;1.95;;;;;;;8.76;100.00;101362.59;4985194;28;20050;-77
2023/10/09 03:18:52;;;;;;;0.20;0.20;;;;;;;8.58;100.00;101368.28;4983614;28;20054;-76
2023/10/09 03:21:18;;;;;;;0.30;0.30;;;;;;;9.32;100.00;101485.13;4981190;28;20042;-79
2023/10/09 03:23:51;;;;;;;0.90;0.70;;;;;;;8.64;100.00;101373.66;4984396;28;20938;-77
2023/10/09 03:26:20;;;;;;;0.63;0.52;;;;;;;8.29;100.00;101344.91;4982172;28;20129;-78
2023/10/09 03:28:49;;;;;;;0.38;0.38;;;;;;;9.27;100.00;101496.41;4984517;28;20034;-78
2023/10/09 03:31:15;;;;;;;0.93;0.93;;;;;;;8.71;100.00;101398.22;5011859;28;20062;-77
2023/10/09 03:33:40;;;;;;;0.43;0.43;;;;;;;9.06;100.00;101461.84;5004290;28;20057;-77
2023/10/09 03:36:09;;;;;;;0.20;0.20;;;;;;;9.21;100.00;101504.13;4994574;28;20096;-77
2023/10/09 03:38:40;;;;;;;0.30;0.30;;;;;;;9.05;100.00;101423.44;4994391;28;20050;-77
2023/10/09 03:41:12;;;;;;;0.20;0.20;;;;;;;8.45;100.00;101373.22;4985331;28;20113;-77
2023/10/09 03:43:40;;;;;;;2.65;1.95;;;;;;;8.60;100.00;101409.31;4984636;28;20499;-77
2023/10/09 03:46:20;;;;;;;0.30;0.30;;;;;;;8.53;100.00;101441.41;4977617;28;20058;-76
2023/10/09 03:48:47;;;;;;;0.20;0.20;;;;;;;8.44;100.00;101422.88;4983791;28;20133;-76
2023/10/09 03:51:20;;;;;;;1.00;0.55;;;;;;;8.90;100.00;101512.97;4983345;28;20058;-76
2023/10/09 03:53:47;;;;;;;0.30;0.30;;;;;;;9.35;100.00;101516.66;4987519;28;20042;-79
2023/10/09 03:56:12;;;;;;;0.30;0.30;;;;;;;9.32;100.00;101490.38;4988535;28;20062;-77
2023/10/09 03:58:44;;;;;;;0.20;0.20;;;;;;;8.50;100.00;101398.59;4985788;28;20524;-76
2023/10/09 04:01:22;;;;;;;0.30;0.30;;;;;;;9.20;100.00;101525.94;5017809;28;20074;-77
2023/10/09 04:04:00;;;;;;;0.70;0.65;;;;;;;9.35;100.00;101525.38;4987888;28;20066;-76
2023/10/09 04:06:32;;;;;;;0.20;0.20;;;;;;;9.07;100.00;101509.03;4994176;28;20156;-76
2023/10/09 04:11:46;;;;;;;0.40;0.40;;;;;;;8.92;100.00;101524.38;4987799;28;20076;-78
2023/10/09 04:14:33;;;;;;;0.30;0.30;;;;;;;8.14;100.00;101400.28;4989523;28;20042;-77
2023/10/09 04:20:24;;;;;;;0.30;0.30;;;;;;;9.18;100.00;101506.66;4987974;28;20129;-78
2023/10/09 04:25:50;;;;;;;0.30;0.30;;;;;;;8.69;100.00;101436.56;4984523;28;20046;-77
2023/10/09 04:30:46;;;;;;;0.30;0.30;;;;;;;9.25;100.00;101547.88;4983908;28;20520;-77
2023/10/09 04:36:26;;;;;;;1.20;1.10;;;;;;;9.45;100.00;101589.34;4985042;28;20844;-80
2023/10/09 04:39:16;;;;;;;0.30;0.30;;;;;;;9.59;98.45;101584.44;4986292;28;20057;-77
2023/10/09 04:44:24;;;;;;;0.82;0.82;;;;;;;8.98;94.13;101473.91;4986595;28;20442;-76
2023/10/09 04:52:51;;;;;;;0.30;0.30;;;;;;;8.89;95.37;101498.09;4980121;28;20050;-78
2023/10/09 05:05:58;;;;;;;0.20;0.20;;;;;;;8.86;88.08;101484.97;4969517;28;20073;-76
2023/10/09 05:21:36;;;;;;;0.25;0.25;;;;;;;9.36;85.79;101539.38;4984285;28;20523;-77
2023/10/09 05:26:51;;;;;;;0.30;0.30;;;;;;;10.15;85.65;101642.47;4986055;28;20054;-77
2023/10/09 05:29:19;;;;;;;0.35;0.35;;;;;;;10.18;82.63;101660.00;4978848;28;20074;-76
2023/10/09 05:31:56;;;;;;;1.10;1.05;;;;;;;9.81;79.80;101620.78;4979639;28;20667;-77
2023/10/09 05:34:22;;;;;;;0.30;0.30;;;;;;;9.64;79.96;101651.81;4980520;28;20144;-77
2023/10/09 05:36:49;;;;;;;0.30;0.30;;;;;;;10.17;77.34;101666.13;4982440;28;20061;-76
2023/10/09 05:39:22;;;;;;;0.22;0.22;;;;;;;9.94;75.90;101614.94;4982587;28;20046;-78
2023/10/09 05:41:52;;;;;;;1.23;1.15;;;;;;;10.07;76.45;101665.94;4983232;28;20070;-76
2023/10/09 05:44:55;;;;;;;0.32;0.32;;;;;;;9.90;75.59;101622.69;4967677;28;20109;-78
2023/10/09 05:53:55;;;;;;;0.50;0.50;;;;;;;9.79;72.89;101605.88;4982099;28;20100;-78
2023/10/09 06:14:04;;;;;;;0.35;0.20;;;;;;;10.10;66.73;101672.97;4980814;28;20181;-76
2023/10/09 06:19:12;;;;;;;0.88;0.77;;;;;;;10.83;79.57;101667.50;4980708;28;20136;-80
2023/10/09 06:24:23;;;;;;;0.20;0.20;;;;;;;10.76;76.87;101561.50;4979607;28;20050;-82
2023/10/09 06:29:38;;;;;;;1.33;0.47;;;;;;;12.95;100.00;101562.69;4977913;28;20045;-78
2023/10/09 06:34:56;;;;;;;0.40;0.40;;;;;;;12.93;71.55;101686.47;4985064;28;20129;-82
2023/10/09 06:42:43;;;;;;;6.60;5.00;;;;;;;11.68;60.93;101697.03;4978489;28;20050;-78
2023/10/09 06:47:53;;;;;;;0.30;0.30;;;;;;;11.03;58.11;101586.44;4980464;28;20585;-76
2023/10/09 06:53:18;;;;;;;0.77;0.77;;;;;;;11.59;59.09;101663.59;4982451;28;20046;-82
2023/10/09 06:55:50;;;;;;;1.20;1.10;;;;;;;12.61;64.44;101652.75;4973014;28;20046;-86
2023/10/09 06:58:26;;;;;;;0.20;0.20;;;;;;;11.49;58.66;101674.81;5010836;28;20058;-85
2023/10/09 07:01:19;;;;;;;0.60;0.60;;;;;;;13.09;63.20;101680.50;5010842;28;20046;-83
2023/10/09 07:03:52;;;;;;;0.70;0.70;;;;;;;13.20;60.18;101653.34;4981856;28;20050;-76
2023/10/09 07:06:47;;;;;;;0.30;0.30;;;;;;;11.54;56.20;101596.03;4979325;28;20184;-80
2023/10/09 07:14:47;;;;;;;0.75;0.65;;;;;;;10.86;55.81;101588.78;4982578;28;20139;-83
2023/10/09 07:20:58;;;;;;;1.17;0.75;;;;;;;13.84;64.55;101656.53;4983174;28;20794;-80
2023/10/09 07:22:56;;;;;;;0.40;0.40;;;;;;;12.23;54.59;101660.19;4980402;28;20050;-83
2023/10/09 07:25:41;;;;;;;0.63;0.63;;;;;;;12.20;55.40;101665.41;4981716;28;20046;-82
2023/10/09 07:30:57;;;;;;;1.05;0.75;;;;;;;11.43;54.77;101585.38;4981988;28;20166;-80
2023/10/09 07:33:31;;;;;;;1.48;1.00;;;;;;;11.45;54.60;101675.66;4982573;28;20130;-83
2023/10/09 07:36:05;;;;;;;0.60;0.43;;;;;;;11.37;57.06;101585.25;4982755;28;20042;-81
2023/10/09 07:38:37;;;;;;;0.55;0.43;;;;;;;12.14;56.49;101557.44;4981210;28;20549;-82
2023/10/09 07:43:45;;;;;;;0.30;0.30;;;;;;;14.36;63.54;101569.69;4980516;28;20434;-82
2023/10/09 07:46:32;;;;;;;0.52;0.52;;;;;;;14.56;51.19;101679.81;4980309;28;20050;-82
2023/10/09 07:49:08;;;;;;;2.85;0.90;;;;;;;11.60;54.33;101577.72;4977646;28;20046;-84
2023/10/09 07:51:38;;;;;;;0.40;0.40;;;;;;;11.62;54.67;101562.88;4976318;28;20524;-83
2023/10/09 07:54:07;;;;;;;20.02;1.40;;;;;;;10.99;56.45;101475.22;4979148;28;20056;-81
2023/10/09 07:56:45;;;;;;;2.22;0.50;;;;;;;12.62;57.86;101646.63;4976024;28;20735;-83
2023/10/09 07:59:11;;;;;;;0.52;0.45;;;;;;;12.66;55.60;101563.25;4981198;28;20026;-80
2023/10/09 08:01:54;;;;;;;0.93;0.68;;;;;;;14.57;56.77;101648.13;4977576;28;20061;-82
2023/10/09 08:04:47;;;;;;;1.42;1.20;;;;;;;15.63;60.56;101635.03;4978090;28;20051;-81
2023/10/09 08:07:25;;;;;;;0.80;0.60;;;;;;;13.89;53.31;101652.19;4975355;28;20168;-83
2023/10/09 08:15:20;;;;;;;0.20;0.20;;;;;;;12.54;52.81;101528.91;4989332;28;20081;-82
2023/10/09 08:17:53;;;;;;;1.17;1.08;;;;;;;13.26;52.95;101625.31;4979568;28;20068;-81
2023/10/09 08:20:36;;;;;;;1.00;0.90;;;;;;;13.01;52.22;101589.06;4980509;28;20043;-82
2023/10/09 08:23:04;;;;;;;7.00;0.80;;;;;;;15.01;58.02;101613.88;4980344;28;20128;-83
2023/10/09 08:25:35;;;;;;;0.40;0.40;;;;;;;12.51;51.89;101582.44;4979645;28;20039;-80
2023/10/09 08:31:02;;;;;;;1.52;1.42;;;;;;;15.61;49.83;101536.25;4981781;28;20077;-81
2023/10/09 08:36:07;;;;;;;0.85;0.82;;;;;;;13.34;50.63;101635.94;4980130;28;20042;-78
2023/10/09 08:38:35;;;;;;;0.63;0.57;;;;;;;12.89;50.04;101513.44;4976977;28;20092;-84
2023/10/09 08:41:18;;;;;;;0.45;0.30;;;;;;;13.48;50.39;101605.28;4984444;28;20460;-81
2023/10/09 08:43:53;;;;;;;0.77;0.63;;;;;;;14.31;55.86;101599.59;4984942;28;20138;-83
2023/10/09 08:46:21;;;;;;;0.38;0.32;;;;;;;13.49;50.78;101617.63;4981013;28;20066;-82
2023/10/09 08:48:48;;;;;;;4.10;1.98;;;;;;;13.30;49.95;101568.28;4981498;28;20053;-82
2023/10/09 08:51:14;;;;;;;1.35;1.25;;;;;;;14.17;57.34;101477.25;4985089;28;20094;-82
2023/10/09 08:53:48;;;;;;;0.43;0.40;;;;;;;13.62;51.46;101514.84;4984249;28;20051;-81
2023/10/09 08:56:22;;;;;;;2.05;1.70;;;;;;;13.85;51.87;101600.25;4984842;28;20053;-81
2023/10/09 08:58:57;;;;;;;1.33;1.23;;;;;;;13.74;49.82;101609.84;4984184;28;20058;-81
2023/10/09 09:01:24;;;;;;;3.85;1.70;;;;;;;14.05;50.05;101502.72;4981422;28;20048;-80
2023/10/09 09:03:51;;;;;;;1.17;0.93;;;;;;;14.91;47.63;101611.25;4980696;28;20069;-84
2023/10/09 09:06:20;;;;;;;0.32;0.32;;;;;;;13.72;49.84;101593.16;4979956;28;20082;-85
2023/10/09 09:08:47;;;;;;;1.65;0.75;;;;;;;15.12;48.53;101564.53;4981347;28;20571;-85
2023/10/09 09:11:16;;;;;;;2.50;1.98;;;;;;;16.05;50.10;101597.91;4982619;28;20577;-84
2023/10/09 09:14:04;;;;;;;1.58;1.10;;;;;;;14.79;47.71;101484.38;4979804;28;20058;-84
2023/10/09 09:16:31;;;;;;;0.80;0.80;;;;;;;14.36;47.20;101482.53;4981921;28;20050;-82
2023/10/09 09:19:18;;;;;;;2.55;0.98;;;;;;;15.18;51.08;101509.88;4979203;28;20815;-84
2023/10/09 09:21:54;;;;;;;2.20;2.00;;;;;;;14.68;50.06;101574.22;4979766;28;20058;-76
2023/10/09 09:26:58;;;;;;;0.88;0.88;;;;;;;16.99;52.73;101480.75;4981000;28;20047;-81
2023/10/09 09:29:37;;;;;;;0.30;0.22;;;;;;;14.13;45.92;101485.13;4977753;28;20481;-78
2023/10/09 09:32:18;;;;;;;1.40;0.95;;;;;;;14.28;47.35;101579.34;4979548;28;20042;-82
2023/10/09 09:34:49;;;;;;;0.43;0.43;;;;;;;15.14;51.13;101568.06;4985061;28;20086;-82
2023/10/09 09:38:04;;;;;;;0.45;0.45;;;;;;;15.04;47.68;101484.38;4978637;28;20057;-81
2023/10/09 09:40:33;;;;;;;0.20;0.20;;;;;;;13.68;48.79;101456.84;4976123;28;20062;-81
2023/10/09 09:43:04;;;;;;;3.10;1.48;;;;;;;13.93;46.77;101487.72;4981407;28;20345;-81
2023/10/09 09:45:32;;;;;;;0.70;0.70;;;;;;;14.05;47.82;101570.47;4985178;28;20449;-83
2023/10/09 09:48:05;;;;;;;0.82;0.82;;;;;;;14.34;47.33;101560.88;4980413;28;20121;-82
2023/10/09 09:50:38;;;;;;;0.35;0.35;;;;;;;14.57;47.04;101517.81;4980482;28;20042;-81
2023/10/09 09:53:08;;;;;;;0.28;0.20;;;;;;;14.03;47.70;101524.72;4982168;28;20570;-78
2023/10/09 09:55:41;;;;;;;1.15;1.05;;;;;;;14.52;47.05;101531.00;4978728;28;20062;-80
2023/10/09 09:58:18;;;;;;;0.52;0.52;;;;;;;14.27;47.68;101445.56;4978364;28;20058;-84
2023/10/09 10:00:45;;;;;;;0.45;0.45;;;;;;;14.68;48.06;101520.47;4979638;28;20038;-82
2023/10/09 10:03:35;;;;;;;1.55;1.45;;;;;;;14.12;46.36;101530.03;4979164;28;20034;-82
2023/10/09 10:06:09;;;;;;;0.60;0.57;;;;;;;15.23;47.84;101512.53;4982836;28;20073;-79
2023/10/09 10:08:38;;;;;;;0.65;0.45;;;;;;;14.14;47.23;101449.97;4981332;28;20082;-82
2023/10/09 10:11:05;;;;;;;0.30;0.30;;;;;;;14.55;46.60;101504.59;4977981;28;20489;-82
2023/10/09 10:14:00;;;;;;;0.40;0.40;;;;;;;13.81;47.81;101497.34;4980651;28;20058;-79
2023/10/09 10:16:34;;;;;;;0.10;0.10;;;;;;;13.92;47.68;101398.00;4972668;28;20081;-82
2023/10/09 10:19:07;;;;;;;;;;;;;;;14.92;46.80;101485.25;4979743;28;20432;-82
2023/10/09 10:21:41;;;;;;;0.37;0.30;;;;;;;15.98;46.88;101480.56;4977907;28;19922;-82
2023/10/09 10:24:28;;;;;;;4.57;0.52;;;;;;;13.99;46.09;101478.06;4979520;28;20440;-82
2023/10/09 10:27:24;;;;;;;0.20;0.20;;;;;;;14.01;46.38;101476.31;4983253;28;20038;-81
2023/10/09 10:30:11;;;;;;;0.20;0.20;;;;;;;15.07;46.81;101461.44;4979446;28;20126;-82
2023/10/09 10:32:52;;;;;;;2.83;1.30;;;;;;;16.25;47.57;101454.81;4975924;28;20054;-78
2023/10/09 10:35:32;;;;;;;0.20;0.20;;;;;;;14.51;44.18;101372.50;4981670;28;20105;-78
2023/10/09 10:38:14;;;;;;;1.42;0.88;;;;;;;15.25;45.36;101441.16;4977195;28;20120;-81
2023/10/09 10:40:46;;;;;;;0.30;0.30;;;;;;;14.37;44.71;101369.88;4979068;28;20521;-74
2023/10/09 10:43:47;;;;;;;0.20;0.20;;;;;;;14.78;44.51;101392.78;4971562;28;20057;-83
2023/10/09 10:46:24;;;;;;;1.27;0.38;;;;;;;14.89;43.94;101335.50;4974908;28;20053;-78
2023/10/09 10:51:38;;;;;;;0.20;0.20;;;;;;;15.66;43.08;101400.41;4988746;28;20042;-78
2023/10/09 10:56:51;;;;;;;0.57;0.57;;;;;;;15.80;43.36;101346.56;4977927;28;20756;-80
2023/10/09 10:59:23;;;;;;;0.30;0.30;;;;;;;15.81;43.24;101313.03;4980632;28;20073;-79
2023/10/09 11:04:44;;;;;;;0.30;0.30;;;;;;;16.19;42.42;101323.31;4979894;28;20058;-82
2023/10/09 11:07:16;;;;;;;2.22;0.95;;;;;;;16.34;42.75;101332.91;4977128;28;20081;-77
2023/10/09 11:15:55;;;;;;;0.73;0.73;;;;;;;15.01;42.69;101222.69;4975083;28;20121;-76
2023/10/09 11:18:27;;;;;;;0.43;0.38;;;;;;;15.27;43.08;101231.34;4977760;28;20054;-78
2023/10/09 11:28:49;;;;;;;0.63;0.63;;;;;;;16.05;43.00;101298.72;4975945;28;20049;-78
2023/10/09 11:31:17;;;;;;;0.82;0.82;;;;;;;16.14;43.00;101303.06;4980579;28;20058;-78
2023/10/09 11:33:44;;;;;;;0.35;0.35;;;;;;;16.17;43.46;101301.25;4982112;28;20042;-78
2023/10/09 11:36:09;;;;;;;0.22;0.22;;;;;;;16.00;42.73;101206.13;4979226;28;20046;-77
2023/10/09 11:38:36;;;;;;;1.55;1.33;;;;;;;15.68;42.86;101254.00;4982507;28;20427;-77
2023/10/09 11:41:24;;;;;;;0.20;0.20;;;;;;;16.03;42.88;101258.16;4985075;28;20117;-77
2023/10/09 11:43:51;;;;;;;0.50;0.40;;;;;;;15.46;43.70;101268.28;4980523;28;20216;-77
2023/10/09 11:52:35;;;;;;;0.20;0.20;;;;;;;16.46;43.00;101257.75;4989903;28;20154;-77
2023/10/09 11:54:50;;;;;;;;;;;;;;;15.96;43.69;101251.16;4981901;28;20061;-78
2023/10/09 11:57:17;;;;;;;2.33;2.13;;;;;;;15.27;43.39;101136.16;4981122;28;19961;-80
2023/10/09 11:59:43;;;;;;;0.50;0.38;;;;;;;16.34;43.35;101249.91;4979521;28;20133;-79
2023/10/09 12:02:13;;;;;;;0.20;0.20;;;;;;;16.31;43.17;101218.16;5015176;28;20034;-77
2023/10/09 12:04:42;;;;;;;1.00;1.00;;;;;;;16.59;42.81;101243.44;4977804;28;20057;-77
2023/10/09 12:07:10;;;;;;;0.50;0.40;;;;;;;16.24;43.58;101246.47;4978869;28;20050;-78
2023/10/09 12:09:38;;;;;;;0.20;0.20;;;;;;;16.37;43.53;101218.09;4979739;28;20057;-79
2023/10/09 12:12:05;;;;;;;0.57;0.57;;;;;;;16.04;44.36;101115.19;4987623;28;20192;-79
2023/10/09 12:14:37;;;;;;;1.00;0.75;;;;;;;16.01;43.50;101213.19;4979795;28;20467;-78
2023/10/09 12:17:07;;;;;;;15.50;1.98;;;;;;;16.03;43.82;101158.41;4984933;28;20060;-78
2023/10/09 12:19:33;;;;;;;0.80;0.80;;;;;;;16.56;43.68;101203.75;4986009;28;20134;-78
2023/10/09 12:22:00;;;;;;;0.50;0.50;;;;;;;16.08;43.85;101183.97;4987204;28;20165;-76
2023/10/09 12:24:26;;;;;;;0.93;0.60;;;;;;;16.41;44.18;101180.06;4985733;28;20129;-77
2023/10/09 12:26:53;;;;;;;0.30;0.30;;;;;;;16.40;44.40;101112.97;4983260;28;20054;-77
2023/10/09 12:29:19;;;;;;;0.50;0.50;;;;;;;15.82;43.83;101117.16;4987492;28;20038;-78
2023/10/09 12:31:46;;;;;;;0.35;0.25;;;;;;;16.42;43.45;101174.78;4987324;28;20088;-79
2023/10/09 12:34:16;;;;;;;0.30;0.30;;;;;;;16.29;43.73;101133.41;5016028;28;20046;-78
2023/10/09 12:36:45;;;;;;;2.13;1.73;;;;;;;16.47;43.54;101174.72;4985117;28;20745;-76
2023/10/09 12:39:17;;;;;;;0.70;0.45;;;;;;;15.71;43.53;101063.50;4985482;28;20042;-74
2023/10/09 12:41:46;;;;;;;1.00;0.90;;;;;;;16.14;43.89;101104.50;4986535;28;20121;-77
2023/10/09 12:44:14;;;;;;;0.30;0.30;;;;;;;15.81;43.96;101041.34;4981358;28;20113;-78
2023/10/09 12:46:51;;;;;;;1.38;0.82;;;;;;;16.51;44.25;101109.34;4986610;28;20049;-77
2023/10/09 12:49:26;;;;;;;2.03;1.27;;;;;;;16.61;43.73;101180.72;4984532;28;20053;-78
2023/10/09 12:51:53;;;;;;;0.75;0.75;;;;;;;15.92;43.50;101102.09;5012425;28;20087;-79
2023/10/09 12:54:26;;;;;;;0.30;0.30;;;;;;;15.67;43.90;101029.13;4981163;28;20043;-77
2023/10/09 12:56:52;;;;;;;2.47;1.85;;;;;;;16.36;44.17;101094.50;4985771;28;20050;-78
2023/10/09 12:59:19;;;;;;;1.95;1.75;;;;;;;16.88;43.62;101168.06;4986229;28;20049;-79
2023/10/09 13:01:49;;;;;;;0.30;0.30;;;;;;;16.56;43.80;101160.50;4979740;28;20042;-76
2023/10/09 13:04:15;;;;;;;0.40;0.40;;;;;;;16.73;44.04;101161.13;4980165;28;20054;-78
2023/10/09 13:06:44;;;;;;;0.20;0.20;;;;;;;16.58;44.11;101148.97;4983051;28;20070;-78
2023/10/09 13:09:24;;;;;;;0.45;0.40;;;;;;;16.77;44.25;101136.34;4980507;28;20057;-79
2023/10/09 13:11:50;;;;;;;4.00;3.70;;;;;;;16.74;44.27;101119.59;4982891;28;20105;-78
2023/10/09 13:14:22;;;;;;;8.88;1.98;;;;;;;16.11;43.82;101020.69;4982314;28;20040;-79
2023/10/09 13:16:50;;;;;;;4.40;0.63;;;;;;;16.92;43.65;101126.44;4982780;28;20116;-79
2023/10/09 13:19:17;;;;;;;0.20;0.20;;;;;;;16.23;43.23;101031.09;4985936;28;20042;-81
2023/10/09 13:21:43;;;;;;;0.52;0.52;;;;;;;16.73;43.06;101094.00;4987167;28;20070;-77
2023/10/09 13:24:13;;;;;;;5.28;0.73;;;;;;;16.58;43.07;101087.16;5016946;28;20073;-78
2023/10/09 13:26:46;;;;;;;1.23;1.00;;;;;;;16.49;43.84;101100.53;4984671;28;20149;-78
2023/10/09 13:29:13;;;;;;;0.50;0.43;;;;;;;16.48;43.84;101094.31;4982346;28;20042;-80
2023/10/09 13:31:46;;;;;;;0.43;0.43;;;;;;;16.41;43.60;101051.19;5014031;28;20060;-79
2023/10/09 13:34:14;;;;;;;0.38;0.38;;;;;;;16.71;43.47;101066.66;4983595;28;20062;-77
2023/10/09 13:36:53;;;;;;;0.25;0.25;;;;;;;16.55;43.36;101024.50;4981282;28;20054;-77
2023/10/09 13:39:24;;;;;;;0.20;0.20;;;;;;;16.27;43.21;101041.66;4984208;28;20042;-78
2023/10/09 13:41:57;;;;;;;0.20;0.20;;;;;;;16.32;43.30;100993.03;4987327;28;20043;-78
2023/10/09 13:44:29;;;;;;;1.42;1.33;;;;;;;16.29;42.70;100981.59;4987355;28;20030;-77
2023/10/09 13:47:05;;;;;;;0.35;0.35;;;;;;;16.62;43.10;101023.50;4987503;28;20124;-81
2023/10/09 13:49:32;;;;;;;0.20;0.20;;;;;;;16.27;43.52;101053.09;4981180;28;20081;-80
2023/10/09 13:51:59;;;;;;;0.10;0.10;;;;;;;15.89;42.97;100961.84;5018089;28;20049;-79
2023/10/09 13:57:04;;;;;;;0.55;0.55;;;;;;;16.38;43.07;101053.84;4986717;28;20046;-78
2023/10/09 13:59:30;;;;;;;0.20;0.20;;;;;;;16.71;43.42;101045.44;4987202;28;20038;-79
2023/10/09 14:01:56;;;;;;;1.25;1.10;;;;;;;16.14;42.98;100954.44;4987807;28;20117;-81
2023/10/09 14:04:22;;;;;;;0.28;0.28;;;;;;;16.10;43.06;100930.69;4982057;28;20065;-79
2023/10/09 14:06:49;;;;;;;1.02;0.93;;;;;;;16.36;43.35;100948.81;4985492;28;20038;-79
2023/10/09 14:12:09;;;;;;;0.20;0.20;;;;;;;16.45;43.46;100960.16;4985393;28;20050;-79
2023/10/09 14:14:47;;;;;;;0.98;0.55;;;;;;;16.57;43.31;100943.19;4985290;28;20061;-79
2023/10/09 14:17:23;;;;;;;0.10;0.10;;;;;;;16.53;43.21;100943.25;5018302;28;20041;-79
2023/10/09 14:19:51;;;;;;;3.47;0.95;;;;;;;16.56;42.64;100943.22;4982428;28;20059;-78
2023/10/09 14:22:18;;;;;;;0.15;0.15;;;;;;;16.75;42.97;101005.63;4978069;28;20081;-79
2023/10/09 14:24:45;;;;;;;1.42;1.33;;;;;;;15.80;43.29;100933.75;4983670;28;20209;-79
2023/10/09 14:27:17;;;;;;;0.65;0.55;;;;;;;16.06;43.57;100966.03;4981663;28;20142;-80
2023/10/09 14:29:45;;;;;;;2.67;1.23;;;;;;;16.05;43.21;100880.44;4987871;28;20849;-83
2023/10/09 14:32:14;;;;;;;0.98;0.80;;;;;;;16.61;44.04;100966.09;4969288;28;20050;-80
2023/10/09 14:34:49;;;;;;;0.40;0.40;;;;;;;16.78;44.39;100971.09;4976245;28;20514;-82
2023/10/09 14:37:16;;;;;;;5.25;2.05;;;;;;;16.13;44.60;100888.25;4987148;28;20058;-81
2023/10/09 14:39:45;;;;;;;0.28;0.28;;;;;;;16.54;44.85;100967.09;4977285;28;20054;-83
2023/10/09 14:42:10;;;;;;;0.57;0.57;;;;;;;15.73;44.28;100849.16;4983552;28;20077;-81
2023/10/09 14:44:40;;;;;;;0.20;0.20;;;;;;;16.72;44.54;100986.25;4971952;28;20507;-80
2023/10/09 14:47:06;;;;;;;0.40;0.40;;;;;;;16.48;44.50;100959.22;4979011;28;20042;-80
2023/10/09 14:49:36;;;;;;;0.20;0.20;;;;;;;16.13;44.38;100947.41;4981212;28;20392;-81
2023/10/09 14:52:08;;;;;;;0.45;0.45;;;;;;;15.69;44.50;100868.59;4978318;28;20055;-80
2023/10/09 14:54:35;;;;;;;0.47;0.40;;;;;;;15.90;45.04;100894.78;4980187;28;20073;-81